S.caterina — ILVM2 — position and weather

sailwx.info

Track history (hours):
 
Tides and Currents Weather Stations Pressure Air Temp Water Temp Dewpoint Dewpoint Depression Visibility Wind Speed Wind Dir Waves Ship Positions

S.caterina

Last reported at 2018-Feb-22 12:13 UTC. Time now 2018-Feb-24 06:47 UTC.
Position N 40°18' E 017°34'.

; draft 2 m.

Type: Fishing. MMSI: 247129450.

Date/timePositionNaut miles runAvg speedWind from/ knotsBaromVisibWave heightAir tempDewpointWater temp
2018-Feb-22 12:13N 40°18' E 017°34'0 2.1
2018-Feb-22 12:00N 40°17' E 017°34'3 5.9
2018-Feb-22 11:30N 40°15' E 017°34'1 1.7
2018-Feb-22 11:00N 40°14' E 017°35'1 3.0
2018-Feb-22 10:30N 40°13' E 017°37'1 3.0
2018-Feb-22 10:00N 40°12' E 017°38'1 2.9
2018-Feb-22 09:30N 40°12' E 017°40'1 2.9
2018-Feb-22 09:00N 40°11' E 017°42'1 2.9
2018-Feb-22 08:30N 40°10' E 017°43'2 1.5
2018-Feb-22 07:15N 40°08' E 017°43'1 2.5
2018-Feb-22 06:56N 40°09' E 017°42'1 2.5
2018-Feb-22 06:28N 40°09' E 017°41'1 2.5
2018-Feb-22 05:59N 40°10' E 017°39'1 2.5
2018-Feb-22 05:30N 40°11' E 017°38'1 2.6
2018-Feb-22 05:00N 40°12' E 017°37'1 2.6
2018-Feb-22 04:30N 40°12' E 017°35'2 3.5
2018-Feb-22 04:00N 40°14' E 017°34'4 7.9
2018-Feb-22 03:30N 40°18' E 017°34'0 0.0
2018-Feb-21 12:17N 40°18' E 017°34'1 2.0
2018-Feb-21 12:00N 40°17' E 017°34'4 8.2
2018-Feb-21 11:30N 40°13' E 017°35'1 1.6
2018-Feb-21 11:00N 40°13' E 017°36'1 2.9
2018-Feb-21 10:30N 40°12' E 017°37'1 2.9
2018-Feb-21 10:00N 40°11' E 017°39'1 2.9
2018-Feb-21 09:30N 40°10' E 017°41'1 2.9
2018-Feb-21 09:00N 40°10' E 017°42'1 2.8
2018-Feb-21 08:30N 40°09' E 017°44'1 1.0
2018-Feb-21 07:06N 40°09' E 017°42'1 2.7
2018-Feb-21 06:54N 40°09' E 017°41'1 2.6
2018-Feb-21 06:30N 40°10' E 017°40'1 2.6
2018-Feb-21 06:00N 40°10' E 017°39'1 2.6
2018-Feb-21 05:30N 40°11' E 017°38'1 2.5
2018-Feb-21 05:00N 40°12' E 017°36'1 2.5
2018-Feb-21 04:30N 40°13' E 017°35'2 4.1
2018-Feb-21 04:00N 40°15' E 017°34'3 0.2
2018-Feb-20 12:19N 40°18' E 017°34'1 2.5
2018-Feb-20 12:01N 40°17' E 017°33'4 7.9
2018-Feb-20 11:30N 40°13' E 017°35'1 1.7
2018-Feb-20 11:00N 40°13' E 017°36'2 3.0
2018-Feb-20 10:30N 40°12' E 017°38'1 2.9
2018-Feb-20 10:00N 40°11' E 017°39'2 2.9
2018-Feb-20 09:28N 40°10' E 017°41'1 2.9
2018-Feb-20 09:00N 40°09' E 017°43'1 2.9
2018-Feb-20 08:30N 40°09' E 017°44'1 0.6
2018-Feb-20 07:10N 40°08' E 017°43'1 2.6
2018-Feb-20 06:52N 40°08' E 017°42'1 2.6
2018-Feb-20 06:29N 40°09' E 017°41'1 2.6
2018-Feb-20 06:00N 40°10' E 017°40'1 2.5
2018-Feb-20 05:30N 40°10' E 017°39'1 2.6
2018-Feb-20 05:00N 40°11' E 017°37'1 2.7
2018-Feb-20 04:31N 40°12' E 017°36'1 2.6
2018-Feb-20 04:00N 40°13' E 017°35'4 7.3
2018-Feb-20 03:30N 40°17' E 017°34'1 0.1
2018-Feb-19 12:06N 40°18' E 017°34'1 5.3
2018-Feb-19 12:00N 40°17' E 017°34'3 6.9
2018-Feb-19 11:30N 40°14' E 017°35'1 1.8
2018-Feb-19 11:00N 40°13' E 017°36'1 3.0
2018-Feb-19 10:30N 40°12' E 017°37'2 3.1
2018-Feb-19 10:00N 40°12' E 017°39'2 3.0
2018-Feb-19 09:30N 40°11' E 017°41'2 3.1
2018-Feb-19 08:59N 40°10' E 017°43'1 2.9
2018-Feb-19 08:30N 40°09' E 017°44'1 2.8
2018-Feb-19 08:00N 40°08' E 017°44'1 1.1
2018-Feb-19 07:30N 40°08' E 017°44'1 2.5
2018-Feb-19 07:00N 40°08' E 017°42'1 2.5
2018-Feb-19 06:30N 40°09' E 017°41'1 2.4
2018-Feb-19 06:00N 40°10' E 017°40'1 2.4
2018-Feb-19 05:30N 40°11' E 017°38'1 2.5
2018-Feb-19 05:00N 40°11' E 017°37'1 2.5
2018-Feb-19 04:30N 40°12' E 017°36'2 3.0
2018-Feb-19 04:00N 40°13' E 017°34'4 7.1
2018-Feb-19 03:31N 40°17' E 017°34'  
2018-Feb-16 12:24N 40°18' E 017°34'2 5.0
2018-Feb-16 12:00N 40°16' E 017°34'2 3.8
2018-Feb-16 11:30N 40°14' E 017°34'1 2.3
2018-Feb-16 11:00N 40°13' E 017°36'1 2.9
2018-Feb-16 10:30N 40°12' E 017°37'1 2.9
2018-Feb-16 10:00N 40°11' E 017°38'1 2.8
2018-Feb-16 09:30N 40°11' E 017°40'1 2.7
2018-Feb-16 09:00N 40°10' E 017°42'1 0.8
2018-Feb-16 08:00N 40°10' E 017°41'1 2.6
2018-Feb-16 07:27N 40°10' E 017°39'1 2.6
2018-Feb-16 06:59N 40°11' E 017°38'1 2.7
2018-Feb-16 06:30N 40°12' E 017°36'1 2.8
2018-Feb-16 06:00N 40°13' E 017°35'3 5.5
2018-Feb-16 05:30N 40°15' E 017°33'  
2018-Feb-13 12:14N 40°18' E 017°34'1 3.7
2018-Feb-13 12:00N 40°17' E 017°34'3 5.9
2018-Feb-13 11:31N 40°14' E 017°35'1 1.7
2018-Feb-13 11:01N 40°13' E 017°36'2 3.1
2018-Feb-13 10:31N 40°13' E 017°37'1 2.9
2018-Feb-13 10:00N 40°12' E 017°39'1 2.9
2018-Feb-13 09:31N 40°11' E 017°41'1 2.9
2018-Feb-13 09:01N 40°10' E 017°42'2 1.2
2018-Feb-13 07:12N 40°08' E 017°42'1 2.5
2018-Feb-13 06:51N 40°09' E 017°42'1 2.5
2018-Feb-13 06:30N 40°09' E 017°41'1 2.5
2018-Feb-13 06:00N 40°10' E 017°39'1 2.5
2018-Feb-13 05:30N 40°11' E 017°38'1 2.5
2018-Feb-13 05:00N 40°11' E 017°37'1 2.6
2018-Feb-13 04:30N 40°12' E 017°35'2 3.3
2018-Feb-13 04:01N 40°13' E 017°34'4 7.4
2018-Feb-13 03:30N 40°17' E 017°34'1 0.0
2018-Feb-12 12:16N 40°18' E 017°34'  
Track history (hours):
 
Tides and Currents Weather Stations Pressure Air Temp Water Temp Dewpoint Dewpoint Depression Visibility Wind Speed Wind Dir Waves Ship Positions

S.caterina

Last reported at 2018-Feb-22 12:13 UTC. Time now 2018-Feb-24 06:47 UTC.
Position N 40°18' E 017°34'.

; draft 2 m.

Type: Fishing. MMSI: 247129450.

Date/timePositionNaut miles runAvg speedWind from/ knotsBaromVisibWave heightAir tempDewpointWater temp
2018-Feb-22 12:13N 40°18' E 017°34'0 2.1
2018-Feb-22 12:00N 40°17' E 017°34'3 5.9
2018-Feb-22 11:30N 40°15' E 017°34'1 1.7
2018-Feb-22 11:00N 40°14' E 017°35'1 3.0
2018-Feb-22 10:30N 40°13' E 017°37'1 3.0
2018-Feb-22 10:00N 40°12' E 017°38'1 2.9
2018-Feb-22 09:30N 40°12' E 017°40'1 2.9
2018-Feb-22 09:00N 40°11' E 017°42'1 2.9
2018-Feb-22 08:30N 40°10' E 017°43'2 1.5
2018-Feb-22 07:15N 40°08' E 017°43'1 2.5
2018-Feb-22 06:56N 40°09' E 017°42'1 2.5
2018-Feb-22 06:28N 40°09' E 017°41'1 2.5
2018-Feb-22 05:59N 40°10' E 017°39'1 2.5
2018-Feb-22 05:30N 40°11' E 017°38'1 2.6
2018-Feb-22 05:00N 40°12' E 017°37'1 2.6
2018-Feb-22 04:30N 40°12' E 017°35'2 3.5
2018-Feb-22 04:00N 40°14' E 017°34'4 7.9
2018-Feb-22 03:30N 40°18' E 017°34'0 0.0
2018-Feb-21 12:17N 40°18' E 017°34'1 2.0
2018-Feb-21 12:00N 40°17' E 017°34'4 8.2
2018-Feb-21 11:30N 40°13' E 017°35'1 1.6
2018-Feb-21 11:00N 40°13' E 017°36'1 2.9
2018-Feb-21 10:30N 40°12' E 017°37'1 2.9
2018-Feb-21 10:00N 40°11' E 017°39'1 2.9
2018-Feb-21 09:30N 40°10' E 017°41'1 2.9
2018-Feb-21 09:00N 40°10' E 017°42'1 2.8
2018-Feb-21 08:30N 40°09' E 017°44'1 1.0
2018-Feb-21 07:06N 40°09' E 017°42'1 2.7
2018-Feb-21 06:54N 40°09' E 017°41'1 2.6
2018-Feb-21 06:30N 40°10' E 017°40'1 2.6
2018-Feb-21 06:00N 40°10' E 017°39'1 2.6
2018-Feb-21 05:30N 40°11' E 017°38'1 2.5
2018-Feb-21 05:00N 40°12' E 017°36'1 2.5
2018-Feb-21 04:30N 40°13' E 017°35'2 4.1
2018-Feb-21 04:00N 40°15' E 017°34'3 0.2
2018-Feb-20 12:19N 40°18' E 017°34'1 2.5
2018-Feb-20 12:01N 40°17' E 017°33'4 7.9
2018-Feb-20 11:30N 40°13' E 017°35'1 1.7
2018-Feb-20 11:00N 40°13' E 017°36'2 3.0
2018-Feb-20 10:30N 40°12' E 017°38'1 2.9
2018-Feb-20 10:00N 40°11' E 017°39'2 2.9
2018-Feb-20 09:28N 40°10' E 017°41'1 2.9
2018-Feb-20 09:00N 40°09' E 017°43'1 2.9
2018-Feb-20 08:30N 40°09' E 017°44'1 0.6
2018-Feb-20 07:10N 40°08' E 017°43'1 2.6
2018-Feb-20 06:52N 40°08' E 017°42'1 2.6
2018-Feb-20 06:29N 40°09' E 017°41'1 2.6
2018-Feb-20 06:00N 40°10' E 017°40'1 2.5
2018-Feb-20 05:30N 40°10' E 017°39'1 2.6
2018-Feb-20 05:00N 40°11' E 017°37'1 2.7
2018-Feb-20 04:31N 40°12' E 017°36'1 2.6
2018-Feb-20 04:00N 40°13' E 017°35'4 7.3
2018-Feb-20 03:30N 40°17' E 017°34'1 0.1
2018-Feb-19 12:06N 40°18' E 017°34'1 5.3
2018-Feb-19 12:00N 40°17' E 017°34'3 6.9
2018-Feb-19 11:30N 40°14' E 017°35'1 1.8
2018-Feb-19 11:00N 40°13' E 017°36'1 3.0
2018-Feb-19 10:30N 40°12' E 017°37'2 3.1
2018-Feb-19 10:00N 40°12' E 017°39'2 3.0
2018-Feb-19 09:30N 40°11' E 017°41'2 3.1
2018-Feb-19 08:59N 40°10' E 017°43'1 2.9
2018-Feb-19 08:30N 40°09' E 017°44'1 2.8
2018-Feb-19 08:00N 40°08' E 017°44'1 1.1
2018-Feb-19 07:30N 40°08' E 017°44'1 2.5
2018-Feb-19 07:00N 40°08' E 017°42'1 2.5
2018-Feb-19 06:30N 40°09' E 017°41'1 2.4
2018-Feb-19 06:00N 40°10' E 017°40'1 2.4
2018-Feb-19 05:30N 40°11' E 017°38'1 2.5
2018-Feb-19 05:00N 40°11' E 017°37'1 2.5
2018-Feb-19 04:30N 40°12' E 017°36'2 3.0
2018-Feb-19 04:00N 40°13' E 017°34'4 7.1
2018-Feb-19 03:31N 40°17' E 017°34'  
2018-Feb-16 12:24N 40°18' E 017°34'2 5.0
2018-Feb-16 12:00N 40°16' E 017°34'2 3.8
2018-Feb-16 11:30N 40°14' E 017°34'1 2.3
2018-Feb-16 11:00N 40°13' E 017°36'1 2.9
2018-Feb-16 10:30N 40°12' E 017°37'1 2.9
2018-Feb-16 10:00N 40°11' E 017°38'1 2.8
2018-Feb-16 09:30N 40°11' E 017°40'1 2.7
2018-Feb-16 09:00N 40°10' E 017°42'1 0.8
2018-Feb-16 08:00N 40°10' E 017°41'1 2.6
2018-Feb-16 07:27N 40°10' E 017°39'1 2.6
2018-Feb-16 06:59N 40°11' E 017°38'1 2.7
2018-Feb-16 06:30N 40°12' E 017°36'1 2.8
2018-Feb-16 06:00N 40°13' E 017°35'3 5.5
2018-Feb-16 05:30N 40°15' E 017°33'  
2018-Feb-13 12:14N 40°18' E 017°34'1 3.7
2018-Feb-13 12:00N 40°17' E 017°34'3 5.9
2018-Feb-13 11:31N 40°14' E 017°35'1 1.7
2018-Feb-13 11:01N 40°13' E 017°36'2 3.1
2018-Feb-13 10:31N 40°13' E 017°37'1 2.9
2018-Feb-13 10:00N 40°12' E 017°39'1 2.9
2018-Feb-13 09:31N 40°11' E 017°41'1 2.9
2018-Feb-13 09:01N 40°10' E 017°42'2 1.2
2018-Feb-13 07:12N 40°08' E 017°42'1 2.5
2018-Feb-13 06:51N 40°09' E 017°42'1 2.5
2018-Feb-13 06:30N 40°09' E 017°41'1 2.5
2018-Feb-13 06:00N 40°10' E 017°39'1 2.5
2018-Feb-13 05:30N 40°11' E 017°38'1 2.5
2018-Feb-13 05:00N 40°11' E 017°37'1 2.6
2018-Feb-13 04:30N 40°12' E 017°35'2 3.3
2018-Feb-13 04:01N 40°13' E 017°34'4 7.4
2018-Feb-13 03:30N 40°17' E 017°34'1 0.0
2018-Feb-12 12:16N 40°18' E 017°34'  

Dump ship's entire track history